»·PEaware :: N4139Q KBFL-KCMA

N4139Q :: KBFL-KCMA

FLIGHT INFORMATION

Flight Status: Arrived
Operator: Privately registered:
United States
More flights under this callsign
Pilot: Joey C. (6821)
Aircraft: PILATUS PC-12 EAGLE
(PC12)
More flights by this aircraft type
Origin: KBFL Meadows
United States
Destination: KCMA Camarillo
United States
More flights between these airports :: More routes between these airports
Route: +MEADO4 GMN SESPE
File this flight plan on PilotEdge
Remarks: Aphabet leg #2
Altitude:
(Current/Filed)
9,000ft
Speed:
(Current/Filed)
250kts
Departed: 02-Feb-20 11:31 AM
Arrived: 02-Feb-20 12:04 PM
Distance/Time
Traveled:
73nm/0:33
Distance/Time
To Go:
Arrived

Flight Plot

Page will automatically refresh every two minutes.

Flight plan parsing failed; only flown route is shown


Map Options




Map Legend


Flown Route
Filed Route
Departure Airport
Arrival Airport
Navaid (VOR, NDB)
Fix

Horizontal Profiles

Position Reports

Time Latitude Longitude Heading Altitude Ground
Speed
02-Feb-20 11:13 35.429377 -119.046094 226 495ft 0kts
02-Feb-20 11:14 35.429377 -119.046094 226 495ft 0kts
02-Feb-20 11:15 35.429377 -119.046094 226 495ft 0kts
02-Feb-20 11:16 35.429377 -119.046094 226 495ft 0kts
02-Feb-20 11:17 35.429377 -119.046094 226 495ft 0kts
02-Feb-20 11:18 35.429377 -119.046094 226 495ft 0kts
02-Feb-20 11:19 35.429377 -119.046094 226 495ft 0kts
02-Feb-20 11:20 35.429377 -119.046094 226 495ft 0kts
02-Feb-20 11:21 35.429377 -119.046094 226 495ft 0kts
02-Feb-20 11:22 35.429016 -119.046516 225 492ft 4kts
02-Feb-20 11:23 35.426167 -119.044779 137 481ft 10kts
02-Feb-20 11:24 35.425810 -119.044626 214 480ft 0kts
02-Feb-20 11:25 35.425810 -119.044626 214 480ft 0kts
02-Feb-20 11:26 35.425810 -119.044626 214 480ft 0kts
02-Feb-20 11:27 35.425810 -119.044626 214 480ft 0kts
02-Feb-20 11:28 35.425810 -119.044626 214 480ft 0kts
02-Feb-20 11:29 35.425449 -119.045999 317 476ft 0kts
02-Feb-20 11:30 35.442823 -119.067658 311 1391ft 134kts
02-Feb-20 11:31 35.469267 -119.104332 312 3019ft 186kts
02-Feb-20 11:32 35.509107 -119.158426 312 3010ft 227kts
02-Feb-20 11:33 35.551680 -119.216221 312 3009ft 231kts
02-Feb-20 11:34 35.590799 -119.277549 274 3017ft 233kts
02-Feb-20 11:35 35.546832 -119.289521 143 4500ft 207kts
02-Feb-20 11:36 35.502031 -119.251874 157 6445ft 189kts
02-Feb-20 11:37 35.453457 -119.225098 158 8106ft 195kts
02-Feb-20 11:38 35.401518 -119.195935 158 9013ft 230kts
02-Feb-20 11:39 35.339100 -119.160709 158 9009ft 256kts
02-Feb-20 11:40 35.273894 -119.123879 158 9009ft 260kts
02-Feb-20 11:41 35.208136 -119.086842 158 9009ft 261kts
02-Feb-20 11:42 35.142241 -119.049813 158 9009ft 261kts
02-Feb-20 11:43 35.076170 -119.012744 158 9008ft 261kts
02-Feb-20 11:44 35.010245 -118.975846 158 9005ft 262kts
02-Feb-20 11:45 34.943948 -118.938788 158 9058ft 260kts
02-Feb-20 11:46 34.877923 -118.901971 157 9071ft 262kts
02-Feb-20 11:47 34.811119 -118.867309 173 9058ft 258kts
02-Feb-20 11:48 34.743464 -118.885298 201 9047ft 251kts
02-Feb-20 11:49 34.677140 -118.911389 201 9027ft 250kts
02-Feb-20 11:50 34.611157 -118.937524 201 9010ft 250kts
02-Feb-20 11:51 34.546637 -118.963140 201 8995ft 228kts
02-Feb-20 11:52 34.489566 -118.985617 201 8998ft 207kts
02-Feb-20 11:53 34.440381 -119.005062 202 8994ft 166kts
02-Feb-20 11:54 34.399604 -118.978129 143 7747ft 177kts
02-Feb-20 11:55 34.362741 -118.945449 148 6282ft 161kts
02-Feb-20 11:56 34.321225 -118.917789 145 5923ft 184kts
02-Feb-20 11:57 34.280216 -118.882037 144 4927ft 179kts
02-Feb-20 11:58 34.244122 -118.886113 259 3577ft 167kts
02-Feb-20 11:59 34.234114 -118.935298 251 3411ft 152kts
02-Feb-20 12:00 34.218606 -118.982870 253 2308ft 143kts
02-Feb-20 12:01 34.213291 -119.024772 269 1276ft 113kts
02-Feb-20 12:02 34.213544 -119.061107 271 502ft 100kts
02-Feb-20 12:03 34.213694 -119.088570 269 73ft 24kts
02-Feb-20 12:04 34.211926 -119.090392 134 69ft 0kts
02-Feb-20 12:05 34.211926 -119.090392 134 69ft 0kts
02-Feb-20 12:06 34.211847 -119.090297 133 69ft 7kts
02-Feb-20 12:07 34.210432 -119.090037 89 69ft 0kts

Navigation Log

Ident Type
Flight plan parsing failed, navigation log unavailable